Time;durP1;ratioP1;P1;durP2;ratioP2;P2;SDS_P1;SDS_P2;PMS_P1;PMS_P2;Temp;Humidity;BMP_temperature;BMP_pressure;BME280_temperature;BME280_humidity;BME280_pressure;Samples;Min_cycle;Max_cycle;Signal;HPM_P1;HPM_P2
2022/02/19 00:00:56;;;;;;;9.02;6.75;;;5.70;74.20;;;;;;5076910;28;20032;-62
2022/02/19 00:03:21;;;;;;;10.35;7.00;;;5.70;74.20;;;;;;5077513;28;20414;-62
2022/02/19 00:05:47;;;;;;;9.60;6.75;;;5.60;74.00;;;;;;5079191;28;20098;-62
2022/02/19 00:08:13;;;;;;;9.85;7.45;;;5.60;74.00;;;;;;5087876;28;20035;-62
2022/02/19 00:10:42;;;;;;;11.07;7.82;;;5.60;74.20;;;;;;5077174;28;20470;-62
2022/02/19 00:13:09;;;;;;;10.50;7.40;;;5.60;74.30;;;;;;5086396;28;20539;-62
2022/02/19 00:15:35;;;;;;;11.63;7.53;;;5.50;74.30;;;;;;5094828;28;20364;-62
2022/02/19 00:18:01;;;;;;;11.57;7.45;;;5.50;74.50;;;;;;5080169;28;20024;-62
2022/02/19 00:20:27;;;;;;;11.73;7.65;;;5.50;74.80;;;;;;5076440;28;20115;-62
2022/02/19 00:22:53;;;;;;;11.32;7.70;;;5.40;75.50;;;;;;5076752;28;20499;-62
2022/02/19 00:25:20;;;;;;;12.27;7.20;;;5.40;75.00;;;;;;5084769;28;20552;-62
2022/02/19 00:27:46;;;;;;;11.93;8.98;;;5.40;75.00;;;;;;5096157;28;20024;-62
2022/02/19 00:30:12;;;;;;;10.63;7.40;;;5.40;75.10;;;;;;5096298;28;20103;-62
2022/02/19 00:32:38;;;;;;;10.57;7.88;;;5.40;75.00;;;;;;5076890;28;20070;-62
2022/02/19 00:35:04;;;;;;;11.30;6.70;;;5.40;75.00;;;;;;5090483;28;20044;-62
2022/02/19 00:37:30;;;;;;;7.22;5.57;;;5.40;75.00;;;;;;5078508;28;20038;-62
2022/02/19 00:39:56;;;;;;;10.40;7.20;;;5.40;75.00;;;;;;5088989;28;20099;-62
2022/02/19 00:42:22;;;;;;;10.60;7.28;;;5.40;75.20;;;;;;5094453;28;20027;-62
2022/02/19 00:44:48;;;;;;;12.13;7.05;;;5.40;75.20;;;;;;5096466;28;20368;-62
2022/02/19 00:47:14;;;;;;;14.68;7.80;;;5.40;75.20;;;;;;5092354;28;20028;-62
2022/02/19 00:49:40;;;;;;;9.63;7.20;;;5.40;75.20;;;;;;5087574;28;20123;-62
2022/02/19 00:52:06;;;;;;;10.10;8.02;;;5.40;75.20;;;;;;5091797;28;20099;-62
2022/02/19 00:54:32;;;;;;;15.30;9.80;;;5.40;75.20;;;;;;5076025;28;20069;-62
2022/02/19 00:56:58;;;;;;;13.05;9.50;;;5.40;75.10;;;;;;5089543;28;20032;-62
2022/02/19 00:59:24;;;;;;;13.65;9.88;;;5.40;75.00;;;;;;5076599;28;20388;-62
2022/02/19 01:01:49;;;;;;;15.18;10.05;;;5.40;74.90;;;;;;5087596;28;20022;-62
2022/02/19 01:04:15;;;;;;;18.00;12.10;;;5.40;74.70;;;;;;5103983;28;20150;-62
2022/02/19 01:06:41;;;;;;;16.27;12.13;;;5.30;74.60;;;;;;5095832;28;20048;-62
2022/02/19 01:09:06;;;;;;;19.02;11.73;;;5.30;74.60;;;;;;5095711;28;20031;-62
2022/02/19 01:11:33;;;;;;;18.67;12.82;;;5.20;74.50;;;;;;5096007;28;20020;-62
2022/02/19 01:13:58;;;;;;;22.02;12.05;;;5.20;74.60;;;;;;5105216;28;20036;-62
2022/02/19 01:16:24;;;;;;;18.45;13.55;;;5.20;74.60;;;;;;5092877;28;20028;-62
2022/02/19 01:18:50;;;;;;;18.70;13.70;;;5.10;74.70;;;;;;5076004;28;20029;-62
2022/02/19 01:21:17;;;;;;;17.00;12.35;;;5.20;74.80;;;;;;5075183;28;20059;-62
2022/02/19 01:23:43;;;;;;;18.33;11.98;;;5.10;74.90;;;;;;5087145;28;20038;-62
2022/02/19 01:26:08;;;;;;;14.52;12.00;;;5.10;75.00;;;;;;5081918;28;20024;-62
2022/02/19 01:28:34;;;;;;;17.08;12.05;;;5.10;75.00;;;;;;5091330;28;20024;-62
2022/02/19 01:31:00;;;;;;;19.38;11.05;;;5.10;75.00;;;;;;5080597;28;20055;-62
2022/02/19 01:33:25;;;;;;;15.75;11.52;;;5.00;74.90;;;;;;5097173;28;20028;-62
2022/02/19 01:35:51;;;;;;;16.02;12.20;;;5.00;75.00;;;;;;5092317;28;20488;-62
2022/02/19 01:38:18;;;;;;;15.98;9.60;;;5.00;75.00;;;;;;5083139;28;20024;-62
2022/02/19 01:40:44;;;;;;;14.93;11.68;;;4.90;75.10;;;;;;5095188;28;20119;-62
2022/02/19 01:43:10;;;;;;;15.77;10.77;;;4.90;75.40;;;;;;5094667;28;20115;-62
2022/02/19 01:45:37;;;;;;;14.27;9.73;;;4.90;75.20;;;;;;5094977;28;20429;-62
2022/02/19 01:48:03;;;;;;;12.02;8.48;;;4.80;75.10;;;;;;5094954;28;20097;-62
2022/02/19 01:50:28;;;;;;;15.02;9.15;;;4.80;75.20;;;;;;5094819;28;20060;-62
2022/02/19 01:52:54;;;;;;;9.70;6.40;;;4.70;75.30;;;;;;5081695;28;20395;-62
2022/02/19 01:55:21;;;;;;;14.05;8.60;;;4.70;76.00;;;;;;5077995;28;20053;-62
2022/02/19 01:57:48;;;;;;;11.20;7.35;;;4.60;75.50;;;;;;5094660;28;20494;-62
2022/02/19 02:00:14;;;;;;;8.02;6.80;;;4.60;75.60;;;;;;5076008;28;20032;-62
2022/02/19 02:02:42;;;;;;;8.68;6.53;;;4.60;75.90;;;;;;5085095;28;20100;-62
2022/02/19 02:05:08;;;;;;;7.10;6.00;;;4.50;75.80;;;;;;5082658;28;20015;-62
2022/02/19 02:07:34;;;;;;;9.30;6.35;;;4.50;76.00;;;;;;5087711;28;20020;-62
2022/02/19 02:10:00;;;;;;;8.88;6.80;;;4.40;76.20;;;;;;5074843;28;20229;-62
2022/02/19 02:12:26;;;;;;;9.93;6.65;;;4.40;76.30;;;;;;5078750;28;20036;-62
2022/02/19 02:14:51;;;;;;;11.13;8.50;;;4.40;76.50;;;;;;5086151;28;20028;-62
2022/02/19 02:17:17;;;;;;;12.10;10.07;;;4.40;76.50;;;;;;5094319;28;20028;-62
2022/02/19 02:19:42;;;;;;;13.52;8.90;;;4.40;76.50;;;;;;5094472;28;20024;-62
2022/02/19 02:22:09;;;;;;;13.93;10.18;;;4.40;76.50;;;;;;5091680;28;20060;-62
2022/02/19 02:24:37;;;;;;;12.48;10.57;;;4.40;76.50;;;;;;5104477;28;20174;-62
2022/02/19 02:27:05;;;;;;;12.27;8.90;;;4.40;76.50;;;;;;5079415;28;20016;-62
2022/02/19 02:29:32;;;;;;;12.48;9.73;;;4.40;76.50;;;;;;5089052;28;20471;-62
2022/02/19 02:31:58;;;;;;;10.13;8.10;;;4.30;76.70;;;;;;5087304;28;20023;-62
2022/02/19 02:34:23;;;;;;;13.90;8.75;;;4.30;76.60;;;;;;5075717;28;20388;-62
2022/02/19 02:36:49;;;;;;;11.15;9.40;;;4.30;76.80;;;;;;5084879;28;20032;-62
2022/02/19 02:39:15;;;;;;;13.75;8.15;;;4.30;77.00;;;;;;5073478;28;20024;-62
2022/02/19 02:41:40;;;;;;;12.45;8.85;;;4.30;77.00;;;;;;5080968;28;20046;-62
2022/02/19 02:44:06;;;;;;;11.73;9.27;;;4.30;77.20;;;;;;5078712;28;20086;-62
2022/02/19 02:46:32;;;;;;;12.13;8.50;;;4.30;76.90;;;;;;5073566;28;20025;-62
2022/02/19 02:48:57;;;;;;;9.55;7.82;;;4.30;76.90;;;;;;5073236;28;20024;-62
2022/02/19 02:51:23;;;;;;;12.27;9.13;;;4.30;77.00;;;;;;5083804;28;20012;-62
2022/02/19 02:53:49;;;;;;;13.23;9.05;;;4.30;77.00;;;;;;5083356;28;20028;-62
2022/02/19 02:56:15;;;;;;;12.65;8.27;;;4.40;77.00;;;;;;5080577;28;20033;-62
2022/02/19 02:58:41;;;;;;;11.00;8.70;;;4.40;77.20;;;;;;5075229;28;20025;-62
2022/02/19 03:01:07;;;;;;;11.18;9.00;;;4.40;77.10;;;;;;5078540;28;20358;-62
2022/02/19 03:03:33;;;;;;;11.73;8.63;;;4.40;77.00;;;;;;5073401;28;20138;-62
2022/02/19 03:06:01;;;;;;;12.70;9.10;;;4.40;77.00;;;;;;5078144;28;20461;-62
2022/02/19 03:08:27;;;;;;;12.10;8.20;;;4.40;76.90;;;;;;5073307;28;20448;-62
2022/02/19 03:10:52;;;;;;;11.70;8.07;;;4.40;76.90;;;;;;5086016;28;20052;-62
2022/02/19 03:13:18;;;;;;;12.35;7.82;;;4.40;77.00;;;;;;5088106;28;20024;-62
2022/02/19 03:15:44;;;;;;;10.88;7.32;;;4.30;77.00;;;;;;5101724;28;20032;-62
2022/02/19 03:18:10;;;;;;;10.95;7.80;;;4.30;77.10;;;;;;5077922;28;20300;-62
2022/02/19 03:20:39;;;;;;;10.07;7.32;;;4.30;77.10;;;;;;5072527;28;20077;-62
2022/02/19 03:23:06;;;;;;;10.68;6.50;;;4.30;77.10;;;;;;5076375;28;20111;-62
2022/02/19 03:25:32;;;;;;;12.45;7.88;;;4.30;77.10;;;;;;5084910;28;20021;-62
2022/02/19 03:27:58;;;;;;;10.68;6.90;;;4.30;77.10;;;;;;5095067;28;20123;-62
2022/02/19 03:30:24;;;;;;;10.88;8.20;;;4.30;77.00;;;;;;5086155;28;20045;-62
2022/02/19 03:32:50;;;;;;;11.13;9.43;;;4.20;77.10;;;;;;5076469;28;20078;-62
2022/02/19 03:35:15;;;;;;;9.85;6.95;;;4.30;77.10;;;;;;5076785;28;20040;-62
2022/02/19 03:37:41;;;;;;;11.70;8.63;;;4.20;77.00;;;;;;5082401;28;20024;-62
2022/02/19 03:40:09;;;;;;;8.82;6.18;;;4.20;77.10;;;;;;5096982;28;20475;-62
2022/02/19 03:42:36;;;;;;;9.93;7.80;;;4.20;77.10;;;;;;5096588;28;20103;-62
2022/02/19 03:45:04;;;;;;;11.07;7.88;;;4.20;77.20;;;;;;5096348;28;20039;-62
2022/02/19 03:47:30;;;;;;;9.98;7.07;;;4.30;77.10;;;;;;5095209;28;20666;-62
2022/02/19 03:49:56;;;;;;;13.05;8.88;;;4.30;77.80;;;;;;5095913;28;20099;-62
2022/02/19 03:52:21;;;;;;;14.50;10.15;;;4.30;77.00;;;;;;5086003;28;20537;-62
2022/02/19 03:54:47;;;;;;;18.75;14.07;;;4.30;77.20;;;;;;5092389;28;20050;-62
2022/02/19 03:57:13;;;;;;;14.85;10.45;;;4.30;77.00;;;;;;5093796;28;20077;-62
2022/02/19 03:59:38;;;;;;;15.40;12.23;;;4.30;76.90;;;;;;5078310;28;20107;-62
2022/02/19 04:02:04;;;;;;;15.35;13.70;;;4.40;77.20;;;;;;5074542;28;20450;-62
2022/02/19 04:04:30;;;;;;;14.63;10.77;;;4.40;76.90;;;;;;5074582;28;20500;-62
2022/02/19 04:06:55;;;;;;;14.00;11.30;;;4.40;76.90;;;;;;5075890;28;20477;-62
2022/02/19 04:09:21;;;;;;;12.27;8.98;;;4.40;76.80;;;;;;5083842;28;20058;-62
2022/02/19 04:11:46;;;;;;;12.30;8.35;;;4.50;76.70;;;;;;5096125;28;20479;-62
2022/02/19 04:14:12;;;;;;;10.27;6.95;;;4.50;76.60;;;;;;5096149;28;20113;-62
2022/02/19 04:16:38;;;;;;;11.60;8.00;;;4.50;76.40;;;;;;5095667;28;20031;-62
2022/02/19 04:19:03;;;;;;;12.38;7.88;;;4.50;76.40;;;;;;5095476;28;20028;-62
2022/02/19 04:21:29;;;;;;;14.13;9.23;;;4.50;76.40;;;;;;5076007;28;20534;-62
2022/02/19 04:23:55;;;;;;;10.90;7.80;;;4.50;76.50;;;;;;5084618;28;20028;-62
2022/02/19 04:26:20;;;;;;;12.50;9.55;;;4.50;76.40;;;;;;5088483;28;20024;-62
2022/02/19 04:28:46;;;;;;;14.65;8.73;;;4.50;76.40;;;;;;5092816;28;20035;-62
2022/02/19 04:31:12;;;;;;;11.38;7.90;;;4.50;76.40;;;;;;5080877;28;20103;-62
2022/02/19 04:33:37;;;;;;;11.57;8.32;;;4.60;76.40;;;;;;5095173;28;20036;-62
2022/02/19 04:36:03;;;;;;;11.20;8.43;;;4.60;76.30;;;;;;5081238;28;20504;-62
2022/02/19 04:38:30;;;;;;;11.30;8.43;;;4.60;76.30;;;;;;5095528;28;20028;-62
2022/02/19 04:40:56;;;;;;;13.93;8.93;;;4.60;76.90;;;;;;5095611;28;20024;-62
2022/02/19 04:43:22;;;;;;;17.52;10.30;;;4.60;76.20;;;;;;5084131;28;20472;-62
2022/02/19 04:45:48;;;;;;;11.20;9.02;;;4.60;76.40;;;;;;5095422;28;20482;-62
2022/02/19 04:48:13;;;;;;;16.45;9.98;;;4.60;76.30;;;;;;5095382;28;20460;-62
2022/02/19 04:50:39;;;;;;;12.88;9.98;;;4.70;76.30;;;;;;5077316;28;20020;-62
2022/02/19 04:53:05;;;;;;;10.75;6.63;;;4.70;76.20;;;;;;5095087;28;20020;-62
2022/02/19 04:55:31;;;;;;;10.80;8.50;;;4.70;76.10;;;;;;5094712;28;20115;-62
2022/02/19 04:57:57;;;;;;;12.18;7.80;;;4.70;76.10;;;;;;5086446;28;20115;-62
2022/02/19 05:00:23;;;;;;;12.38;8.63;;;4.80;76.10;;;;;;5082940;28;20060;-62
2022/02/19 05:02:48;;;;;;;14.07;8.10;;;4.80;76.00;;;;;;5094967;28;20082;-62
2022/02/19 05:05:14;;;;;;;12.80;7.78;;;4.80;75.90;;;;;;5095161;28;20502;-62
2022/02/19 05:07:40;;;;;;;11.45;7.97;;;4.90;75.80;;;;;;5095296;28;20483;-62
2022/02/19 05:10:06;;;;;;;12.77;8.60;;;4.90;75.80;;;;;;5095132;28;20024;-62
2022/02/19 05:12:32;;;;;;;13.52;7.35;;;4.90;75.70;;;;;;5082169;28;20482;-62
2022/02/19 05:14:58;;;;;;;11.18;7.07;;;5.00;75.60;;;;;;5094533;28;20032;-62
2022/02/19 05:17:24;;;;;;;9.88;7.20;;;5.00;75.40;;;;;;5077214;28;20024;-62
2022/02/19 05:19:50;;;;;;;9.20;7.57;;;5.00;75.10;;;;;;5075286;28;20039;-62
2022/02/19 05:22:16;;;;;;;9.65;7.57;;;5.00;75.10;;;;;;5083884;28;20028;-62
2022/02/19 05:24:41;;;;;;;10.18;6.97;;;5.00;75.20;;;;;;5094323;28;20050;-62
2022/02/19 05:27:07;;;;;;;11.38;7.63;;;5.10;75.30;;;;;;5094842;28;20028;-62
2022/02/19 05:29:33;;;;;;;8.65;6.80;;;5.10;75.20;;;;;;5084286;28;20046;-62
2022/02/19 05:31:58;;;;;;;11.02;7.40;;;5.10;75.00;;;;;;5074262;28;20028;-62
2022/02/19 05:34:24;;;;;;;8.90;7.20;;;5.20;75.10;;;;;;5088057;28;20044;-62
2022/02/19 05:36:50;;;;;;;12.80;6.88;;;5.20;75.00;;;;;;5085678;28;20399;-62
2022/02/19 05:39:16;;;;;;;8.70;6.80;;;5.30;74.90;;;;;;5094738;28;20028;-62
2022/02/19 05:41:42;;;;;;;9.85;7.18;;;5.30;74.70;;;;;;5094433;28;20103;-62
2022/02/19 05:44:07;;;;;;;11.10;6.65;;;5.40;74.80;;;;;;5094196;28;20154;-62
2022/02/19 05:46:34;;;;;;;9.20;6.18;;;5.50;74.80;;;;;;5094276;28;20100;-62
2022/02/19 05:49:00;;;;;;;10.38;6.97;;;5.50;74.60;;;;;;5093482;28;20048;-62
2022/02/19 05:51:27;;;;;;;9.48;6.30;;;5.50;74.60;;;;;;5080967;28;20061;-62
2022/02/19 05:53:53;;;;;;;8.20;6.05;;;5.60;74.50;;;;;;5093037;28;20050;-62
2022/02/19 05:56:18;;;;;;;10.77;7.03;;;5.60;74.40;;;;;;5094111;28;20024;-62
2022/02/19 05:58:44;;;;;;;11.00;7.45;;;5.60;74.40;;;;;;5093930;28;20447;-62
2022/02/19 06:01:10;;;;;;;12.57;7.72;;;5.70;74.30;;;;;;5077195;28;20039;-62
2022/02/19 06:03:38;;;;;;;12.25;8.70;;;5.70;74.20;;;;;;5073668;28;20396;-62
2022/02/19 06:06:04;;;;;;;9.20;7.43;;;5.70;74.00;;;;;;5073766;28;20108;-62
2022/02/19 06:08:30;;;;;;;12.77;6.93;;;5.70;73.80;;;;;;5073974;28;20028;-62
2022/02/19 06:10:56;;;;;;;10.27;6.57;;;5.70;73.50;;;;;;5090557;28;20541;-62
2022/02/19 06:13:22;;;;;;;9.38;6.60;;;5.70;73.50;;;;;;5094037;28;20020;-62
2022/02/19 06:15:48;;;;;;;9.85;6.25;;;5.60;73.60;;;;;;5093622;28;20028;-62
2022/02/19 06:18:14;;;;;;;9.43;6.35;;;5.70;73.60;;;;;;5093947;28;20391;-62
2022/02/19 06:20:39;;;;;;;9.65;6.15;;;5.70;73.60;;;;;;5078256;28;20035;-62
2022/02/19 06:23:05;;;;;;;8.25;6.18;;;5.70;73.40;;;;;;5076959;28;20028;-62
2022/02/19 06:25:31;;;;;;;11.35;7.15;;;5.70;73.40;;;;;;5089197;28;20109;-62
2022/02/19 06:27:56;;;;;;;10.27;7.18;;;5.70;73.30;;;;;;5093299;28;20039;-62
2022/02/19 06:30:22;;;;;;;11.73;7.63;;;5.80;73.30;;;;;;5093531;28;20051;-62
2022/02/19 06:32:48;;;;;;;10.45;7.10;;;5.80;73.30;;;;;;5093522;28;20095;-62
2022/02/19 06:35:13;;;;;;;8.70;6.30;;;5.90;73.30;;;;;;5093167;28;20094;-62
2022/02/19 06:37:40;;;;;;;8.55;6.78;;;5.90;73.20;;;;;;5093864;28;20468;-62
2022/02/19 06:40:08;;;;;;;10.35;6.72;;;6.00;73.00;;;;;;5093680;28;20488;-62
2022/02/19 06:42:35;;;;;;;9.02;6.00;;;6.00;73.00;;;;;;5074258;28;20427;-62
2022/02/19 06:45:01;;;;;;;8.15;5.68;;;6.10;72.90;;;;;;5073146;28;20032;-62
2022/02/19 06:47:26;;;;;;;11.35;6.97;;;6.10;72.60;;;;;;5072992;28;20078;-62
2022/02/19 06:49:52;;;;;;;8.10;6.40;;;6.10;72.70;;;;;;5073531;28;20021;-62
2022/02/19 06:52:18;;;;;;;10.32;6.30;;;6.20;72.60;;;;;;5085899;28;20066;-62
2022/02/19 06:54:43;;;;;;;9.38;6.18;;;6.30;72.70;;;;;;5078649;28;20036;-62
2022/02/19 06:57:10;;;;;;;7.32;5.30;;;6.30;72.60;;;;;;5092840;28;20437;-62
2022/02/19 06:59:35;;;;;;;8.35;5.07;;;6.40;72.30;;;;;;5085375;28;20036;-62
2022/02/19 07:02:01;;;;;;;7.40;5.55;;;6.40;72.00;;;;;;5092938;28;20024;-62
2022/02/19 07:04:27;;;;;;;7.53;5.07;;;6.40;71.70;;;;;;5093018;28;20069;-62
2022/02/19 07:06:52;;;;;;;7.72;5.32;;;6.50;71.70;;;;;;5092922;28;20024;-62
2022/02/19 07:09:18;;;;;;;8.50;6.03;;;6.50;71.50;;;;;;5093179;28;20283;-62
2022/02/19 07:11:44;;;;;;;9.23;5.85;;;6.50;71.00;;;;;;5092639;28;20020;-62
2022/02/19 07:14:09;;;;;;;11.15;6.20;;;6.50;70.90;;;;;;5093036;28;20028;-62
2022/02/19 07:16:35;;;;;;;8.48;5.95;;;6.50;71.10;;;;;;5073558;28;20120;-62
2022/02/19 07:19:00;;;;;;;8.65;5.70;;;6.50;70.80;;;;;;5076349;28;20111;-62
2022/02/19 07:21:26;;;;;;;7.82;5.05;;;6.60;70.80;;;;;;5086523;28;20039;-62
2022/02/19 07:23:52;;;;;;;7.78;5.88;;;6.60;70.60;;;;;;5091164;28;20375;-62
2022/02/19 07:26:18;;;;;;;6.97;5.47;;;6.60;70.80;;;;;;5089683;28;20115;-62
2022/02/19 07:28:43;;;;;;;9.02;5.93;;;6.60;70.00;;;;;;5071805;28;20091;-62
2022/02/19 07:31:09;;;;;;;7.57;5.47;;;6.60;70.00;;;;;;5079483;28;20020;-62
2022/02/19 07:33:35;;;;;;;9.40;6.43;;;6.60;69.90;;;;;;5081382;28;20107;-62
2022/02/19 07:36:00;;;;;;;8.23;5.68;;;6.60;69.60;;;;;;5091995;28;20102;-62
2022/02/19 07:38:26;;;;;;;5.20;4.70;;;6.70;69.60;;;;;;5085116;28;20024;-62
2022/02/19 07:40:52;;;;;;;7.32;5.40;;;6.70;69.60;;;;;;5092198;28;20462;-62
2022/02/19 07:43:17;;;;;;;9.63;5.43;;;6.80;69.50;;;;;;5090522;28;20025;-62
2022/02/19 07:45:43;;;;;;;8.45;5.55;;;6.80;69.50;;;;;;5091237;28;20024;-62
2022/02/19 07:48:12;;;;;;;9.02;5.68;;;6.80;69.20;;;;;;5064535;28;20017;-62
2022/02/19 07:58:50;;;;;;;8.73;5.00;;;6.90;68.00;;;;;;5079532;28;20031;-62
2022/02/19 08:01:16;;;;;;;8.52;5.10;;;7.00;67.80;;;;;;5073883;28;20029;-62
2022/02/19 08:03:42;;;;;;;7.18;5.18;;;7.00;67.30;;;;;;5077224;28;20059;-62
2022/02/19 08:06:08;;;;;;;5.88;4.43;;;7.00;67.20;;;;;;5083843;28;20440;-62
2022/02/19 08:08:35;;;;;;;9.38;4.65;;;7.00;66.70;;;;;;5083434;28;20096;-62
2022/02/19 08:11:01;;;;;;;6.25;4.82;;;7.00;66.40;;;;;;5075568;28;20476;-62
2022/02/19 08:13:26;;;;;;;6.90;4.50;;;7.00;66.50;;;;;;5076562;28;20087;-62
2022/02/19 08:15:52;;;;;;;5.78;4.22;;;7.00;66.00;;;;;;5075816;28;20495;-62
2022/02/19 08:18:19;;;;;;;5.68;4.10;;;7.00;66.00;;;;;;5076062;28;20066;-62
2022/02/19 08:20:47;;;;;;;7.72;4.30;;;7.10;65.50;;;;;;5089253;28;20520;-62
2022/02/19 08:23:14;;;;;;;6.70;4.13;;;7.10;65.70;;;;;;5076491;28;20035;-62
2022/02/19 08:25:41;;;;;;;6.53;4.20;;;7.10;65.00;;;;;;5075731;28;20050;-62
2022/02/19 08:28:07;;;;;;;7.43;4.25;;;7.20;65.20;;;;;;5083892;28;20032;-62
2022/02/19 08:30:38;;;;;;;5.78;3.78;;;7.20;65.10;;;;;;5085732;28;20438;-62
2022/02/19 08:33:05;;;;;;;4.68;3.75;;;7.30;64.60;;;;;;5093409;28;20065;-62
2022/02/19 08:35:32;;;;;;;6.35;3.70;;;7.30;64.20;;;;;;5092797;28;20078;-62
2022/02/19 08:37:58;;;;;;;5.10;3.70;;;7.30;63.90;;;;;;5090450;28;20075;-62
2022/02/19 08:40:24;;;;;;;6.82;3.60;;;7.40;64.00;;;;;;5091592;28;20114;-62
2022/02/19 08:42:50;;;;;;;5.53;3.65;;;7.40;63.80;;;;;;5092366;28;20463;-62
2022/02/19 08:45:17;;;;;;;5.50;3.70;;;7.50;63.50;;;;;;5092556;28;20491;-62
2022/02/19 08:47:43;;;;;;;10.60;3.88;;;7.60;63.30;;;;;;5092599;28;20016;-62
2022/02/19 08:50:12;;;;;;;5.93;3.78;;;7.70;63.50;;;;;;5092603;28;20024;-62
2022/02/19 08:52:45;;;;;;;5.65;3.80;;;7.80;63.40;;;;;;5090490;28;20020;-62
2022/02/19 08:55:13;;;;;;;6.78;4.13;;;7.90;62.90;;;;;;5090286;28;20035;-62
2022/02/19 08:57:39;;;;;;;7.20;4.95;;;8.00;62.90;;;;;;5088514;28;20051;-62
2022/02/19 09:00:08;;;;;;;6.85;4.20;;;8.10;62.70;;;;;;5093472;28;20024;-62
2022/02/19 09:02:34;;;;;;;7.35;3.85;;;8.20;62.70;;;;;;5091886;28;20032;-62
2022/02/19 09:05:01;;;;;;;4.85;3.90;;;8.20;62.40;;;;;;5092639;28;20055;-62
2022/02/19 09:07:27;;;;;;;4.82;4.00;;;8.30;62.10;;;;;;5092418;28;20149;-62
2022/02/19 09:09:53;;;;;;;4.00;3.17;;;8.40;61.80;;;;;;5093673;28;20504;-62
2022/02/19 09:12:20;;;;;;;4.70;3.15;;;8.40;61.70;;;;;;5087542;28;20027;-62
2022/02/19 09:14:46;;;;;;;4.68;3.40;;;8.40;61.70;;;;;;5090155;28;20028;-62
2022/02/19 09:17:11;;;;;;;5.07;3.65;;;8.50;61.60;;;;;;5092628;28;20024;-62
2022/02/19 09:19:37;;;;;;;7.30;3.80;;;8.60;61.30;;;;;;5092353;28;20062;-62
2022/02/19 09:22:03;;;;;;;5.10;3.20;;;8.60;61.00;;;;;;5091801;28;20020;-62
2022/02/19 09:24:29;;;;;;;4.40;3.10;;;8.60;60.80;;;;;;5092364;28;20024;-62
2022/02/19 09:26:56;;;;;;;5.13;3.70;;;8.60;60.70;;;;;;5090384;28;20055;-62
2022/02/19 09:29:22;;;;;;;4.45;3.30;;;8.60;60.70;;;;;;5092156;28;20028;-62
2022/02/19 09:31:48;;;;;;;4.68;3.47;;;8.60;60.20;;;;;;5091595;28;20024;-62
2022/02/19 09:34:13;;;;;;;4.95;3.50;;;8.60;60.50;;;;;;5091588;28;20111;-62
2022/02/19 09:36:39;;;;;;;5.15;3.25;;;8.60;60.60;;;;;;5092349;28;20063;-62
2022/02/19 09:39:06;;;;;;;6.35;4.25;;;8.60;60.70;;;;;;5092525;28;20035;-62
2022/02/19 09:41:33;;;;;;;9.10;4.57;;;8.60;60.50;;;;;;5091543;28;20495;-62
2022/02/19 09:44:02;;;;;;;8.90;5.60;;;8.70;60.50;;;;;;5092018;28;20032;-62
2022/02/19 09:46:31;;;;;;;7.22;5.35;;;8.70;60.50;;;;;;5089405;28;20059;-62
2022/02/19 09:48:57;;;;;;;6.30;4.57;;;8.70;60.40;;;;;;5089795;28;20028;-62
2022/02/19 09:51:24;;;;;;;7.07;4.47;;;8.80;60.50;;;;;;5091653;28;20136;-62
2022/02/19 09:53:50;;;;;;;6.82;4.20;;;8.80;60.30;;;;;;5092083;28;20032;-62
2022/02/19 09:56:16;;;;;;;6.38;4.10;;;8.80;60.20;;;;;;5091508;28;20058;-62
2022/02/19 09:58:45;;;;;;;6.70;4.40;;;8.80;60.00;;;;;;5092114;28;20421;-62
2022/02/19 10:01:24;;;;;;;6.22;4.10;;;8.80;60.20;;;;;;5091840;28;20047;-62
2022/02/19 10:03:56;;;;;;;7.60;3.83;;;8.80;59.70;;;;;;5090648;28;20024;-62
2022/02/19 10:06:27;;;;;;;6.35;4.07;;;8.80;59.80;;;;;;5091354;28;23440;-62
2022/02/19 10:09:09;;;;;;;5.78;3.35;;;8.80;60.00;;;;;;5080553;28;20035;-62
2022/02/19 10:11:36;;;;;;;6.82;3.72;;;8.80;60.70;;;;;;5079865;28;20039;-62
2022/02/19 10:14:21;;;;;;;4.38;3.58;;;8.80;60.10;;;;;;5093001;28;20038;-62
2022/02/19 10:17:03;;;;;;;6.05;3.85;;;8.90;60.10;;;;;;5086768;28;20078;-62
2022/02/19 10:19:29;;;;;;;6.30;4.00;;;8.90;60.00;;;;;;5078147;28;20096;-62
2022/02/19 10:22:11;;;;;;;5.82;3.75;;;9.00;59.90;;;;;;5087650;28;20032;-62
2022/02/19 10:24:37;;;;;;;3.95;3.30;;;9.00;59.90;;;;;;5073707;28;20078;-62
2022/02/19 10:27:03;;;;;;;7.78;4.43;;;9.00;59.90;;;;;;5073450;28;20412;-62
2022/02/19 10:29:32;;;;;;;5.55;3.72;;;9.00;59.70;;;;;;5074327;28;20385;-62
2022/02/19 10:31:58;;;;;;;6.00;3.60;;;9.00;59.70;;;;;;5091232;28;20031;-62
2022/02/19 10:34:24;;;;;;;5.80;3.75;;;9.00;59.30;;;;;;5093242;28;20044;-62
2022/02/19 10:36:54;;;;;;;5.68;3.70;;;9.00;59.40;;;;;;5093560;28;20036;-62
2022/02/19 10:39:32;;;;;;;5.95;4.35;;;9.00;59.40;;;;;;5085113;28;20040;-62
2022/02/19 10:42:04;;;;;;;6.63;4.70;;;8.90;59.70;;;;;;5073307;28;20024;-62
2022/02/19 10:44:32;;;;;;;5.35;3.53;;;9.00;59.90;;;;;;5073470;28;20087;-62
2022/02/19 10:47:22;;;;;;;5.80;3.72;;;9.00;59.90;;;;;;5083946;28;20059;-62
2022/02/19 10:50:07;;;;;;;5.68;3.78;;;9.00;59.80;;;;;;5090527;28;20058;-62
2022/02/19 10:52:34;;;;;;;7.20;3.80;;;9.00;59.80;;;;;;5082159;28;20376;-62
2022/02/19 10:55:07;;;;;;;9.85;4.00;;;9.00;60.10;;;;;;5072947;28;20428;-62
2022/02/19 10:57:44;;;;;;;5.60;3.80;;;9.00;60.00;;;;;;5075824;28;20027;-62
2022/02/19 11:00:18;;;;;;;6.43;4.00;;;9.00;60.10;;;;;;5079564;28;20036;-62
2022/02/19 11:02:46;;;;;;;5.47;3.88;;;9.10;60.40;;;;;;5072903;28;20078;-62
2022/02/19 11:05:13;;;;;;;7.00;4.18;;;9.00;60.40;;;;;;5072809;28;20033;-62
2022/02/19 11:07:43;;;;;;;5.65;4.68;;;9.00;60.70;;;;;;5072919;28;20069;-62
2022/02/19 11:10:11;;;;;;;6.03;4.30;;;9.00;60.80;;;;;;5073058;28;20150;-62
2022/02/19 11:12:37;;;;;;;5.68;4.22;;;9.00;61.10;;;;;;5073403;28;20391;-62
2022/02/19 11:15:04;;;;;;;6.30;3.78;;;9.00;61.10;;;;;;5073416;28;20024;-62
2022/02/19 11:17:30;;;;;;;6.28;4.75;;;9.00;61.50;;;;;;5072629;28;20075;-62
2022/02/19 11:20:07;;;;;;;5.53;4.00;;;9.00;61.40;;;;;;5085329;28;20016;-62
2022/02/19 11:22:34;;;;;;;5.93;4.25;;;9.00;61.50;;;;;;5092763;28;20081;-62
2022/02/19 11:25:07;;;;;;;5.10;3.92;;;8.90;61.60;;;;;;5079131;28;20032;-62
2022/02/19 11:27:40;;;;;;;5.10;3.97;;;9.00;61.80;;;;;;5083719;28;20093;-62
2022/02/19 11:30:08;;;;;;;6.72;4.72;;;9.00;61.80;;;;;;5086220;28;20056;-62
2022/02/19 11:32:37;;;;;;;5.53;4.38;;;9.00;62.10;;;;;;5072528;28;20048;-62
2022/02/19 11:35:03;;;;;;;6.18;4.18;;;9.00;62.10;;;;;;5085716;28;20121;-62
2022/02/19 11:37:29;;;;;;;5.28;3.92;;;9.00;62.10;;;;;;5084272;28;20123;-62
2022/02/19 11:40:10;;;;;;;8.73;4.60;;;9.00;62.20;;;;;;5092433;28;20128;-62
2022/02/19 11:42:59;;;;;;;6.20;4.43;;;9.10;62.30;;;;;;5092757;28;20027;-62
2022/02/19 11:45:30;;;;;;;6.20;4.28;;;9.10;62.30;;;;;;5092682;28;20024;-62
2022/02/19 11:48:02;;;;;;;;;;;9.20;62.20;;;;;;5092727;28;20105;-62
2022/02/19 11:50:30;;;;;;;7.05;5.13;;;9.10;62.20;;;;;;5075824;28;20376;-62
2022/02/19 11:53:11;;;;;;;8.45;4.63;;;9.20;62.50;;;;;;5095756;28;20032;-62
2022/02/19 11:55:42;;;;;;;6.35;3.97;;;9.20;62.10;;;;;;5096418;28;20027;-62
2022/02/19 11:58:10;;;;;;;9.70;6.38;;;9.20;62.20;;;;;;5096453;28;20423;-62
2022/02/19 12:00:55;;;;;;;5.57;4.15;;;9.30;62.40;;;;;;5082775;28;20021;-62
2022/02/19 12:03:26;;;;;;;5.68;3.53;;;9.30;62.10;;;;;;5076687;28;20027;-62
2022/02/19 12:06:07;;;;;;;5.43;3.60;;;9.30;62.10;;;;;;5074979;28;20027;-62
2022/02/19 12:08:54;;;;;;;5.03;4.03;;;9.40;62.00;;;;;;5076075;28;20081;-62
2022/02/19 12:11:24;;;;;;;5.82;3.97;;;9.40;61.70;;;;;;5083433;28;20480;-62
2022/02/19 12:13:55;;;;;;;6.55;3.20;;;9.30;61.70;;;;;;5096111;28;20111;-62
2022/02/19 12:16:34;;;;;;;6.13;4.38;;;9.30;61.80;;;;;;5095664;28;20376;-62
2022/02/19 12:19:04;;;;;;;4.63;3.47;;;9.30;61.90;;;;;;5095553;28;20059;-62
2022/02/19 12:21:35;;;;;;;8.18;4.00;;;9.30;62.60;;;;;;5078212;28;20051;-62
2022/02/19 12:24:18;;;;;;;7.18;4.13;;;9.40;61.90;;;;;;5075610;28;20051;-62
2022/02/19 12:26:56;;;;;;;4.57;3.30;;;9.40;62.00;;;;;;5075955;28;20020;-62
2022/02/19 12:29:26;;;;;;;6.22;3.45;;;9.40;61.90;;;;;;5075485;28;20186;-62
2022/02/19 12:32:10;;;;;;;8.85;4.05;;;9.40;62.10;;;;;;5075681;28;20388;-62
2022/02/19 12:34:40;;;;;;;4.47;3.30;;;9.40;62.00;;;;;;5082016;28;20408;-62
2022/02/19 12:37:12;;;;;;;7.10;3.97;;;9.40;62.10;;;;;;5095476;28;20035;-62
2022/02/19 12:39:43;;;;;;;5.82;3.53;;;9.40;62.10;;;;;;5076332;28;20024;-62
2022/02/19 12:42:18;;;;;;;5.80;4.03;;;9.40;62.20;;;;;;5075454;28;20154;-62
2022/02/19 12:44:44;;;;;;;5.85;3.97;;;9.40;62.30;;;;;;5085094;28;20024;-62
2022/02/19 12:47:10;;;;;;;5.78;4.40;;;9.40;62.50;;;;;;5095415;28;20035;-62
2022/02/19 12:49:36;;;;;;;6.70;4.32;;;9.40;62.70;;;;;;5092556;28;20116;-62
2022/02/19 12:52:03;;;;;;;5.07;3.95;;;9.40;63.20;;;;;;5075258;28;20442;-62
2022/02/19 12:54:34;;;;;;;4.78;3.40;;;9.40;63.40;;;;;;5076235;28;20036;-62
2022/02/19 12:57:00;;;;;;;6.75;3.85;;;9.40;63.70;;;;;;5075361;28;20135;-62
2022/02/19 12:59:33;;;;;;;5.20;3.92;;;9.40;63.90;;;;;;5085480;28;20031;-62
2022/02/19 13:02:01;;;;;;;5.07;3.65;;;9.40;65.00;;;;;;5086815;28;20029;-62